Pine Ridge, Idaho
Current Conditions -  °F | °C
As of 4:07 PM on Tuesday 21 Oct 2014 (Local Time) from KMYL Reporting Station
Overcast Overcast  
Wind Chill: 40°   Ceiling: 3600
Heat Index: 46°   Visibility: 10mi
Dew Point: 39°   Wind: 13mph
Humidity: 76%   Direction: 170°S
Pressure: 30.02"   Gusts: 16mph
Location:  44.9328°N, 116.572°W
Report Text: KMYL 212207Z AUTO 17011G14KT 10SM SCT022 BKN036 OVC070 08/04 A3002 RMK AO2 T00780039
Loading
Personal Weather Stations






























Interactive Weather Map
Tropical Storm Tracking
New forecast layout! Learn more

10-Day Weather Forecast

Advertisements
Track Severe Weather on mobile